Time;durP1;ratioP1;P1;durP2;ratioP2;P2;SDS_P1;SDS_P2;PMS_P1;PMS_P2;Temp;Humidity;BMP_temperature;BMP_pressure;BME280_temperature;BME280_humidity;BME280_pressure;Samples;Min_cycle;Max_cycle;Signal;HPM_P1;HPM_P2
2021/03/21 00:02:14;;;;;;;21.20;12.75;;;;;;;0.10;67.25;100562.47;1782689;80;21052;-54
2021/03/21 00:04:48;;;;;;;18.57;11.88;;;;;;;0.09;67.28;100559.97;1783455;80;21106;-54
2021/03/21 00:07:26;;;;;;;17.60;12.23;;;;;;;0.06;67.33;100558.50;1782975;80;21603;-54
2021/03/21 00:09:51;;;;;;;16.02;11.25;;;;;;;0.01;67.53;100553.39;1782703;80;21056;-54
2021/03/21 00:12:22;;;;;;;16.93;12.33;;;;;;;-0.04;67.61;100562.91;1783042;80;20997;-54
2021/03/21 00:14:59;;;;;;;18.95;13.80;;;;;;;-0.07;67.71;100551.67;1782861;80;21112;-54
2021/03/21 00:17:23;;;;;;;18.70;12.63;;;;;;;-0.09;67.86;100561.32;1782228;80;21648;-54
2021/03/21 00:19:51;;;;;;;19.20;14.05;;;;;;;-0.13;67.97;100558.70;1783153;80;22373;-54
2021/03/21 00:22:19;;;;;;;19.60;14.95;;;;;;;-0.15;68.02;100549.98;1783020;80;21069;-54
2021/03/21 00:24:48;;;;;;;20.32;16.20;;;;;;;-0.13;67.99;100546.55;1783167;80;21584;-54
2021/03/21 00:27:16;;;;;;;19.87;13.83;;;;;;;-0.17;68.00;100548.01;1782713;80;20997;-54
2021/03/21 00:29:55;;;;;;;22.55;14.90;;;;;;;-0.21;68.05;100540.81;1782889;80;21014;-54
2021/03/21 00:32:21;;;;;;;26.10;17.50;;;;;;;-0.23;68.19;100542.89;1782694;80;21338;-54
2021/03/21 00:34:52;;;;;;;20.92;14.87;;;;;;;-0.25;68.21;100534.14;1783001;80;21083;-54
2021/03/21 00:37:23;;;;;;;23.25;14.47;;;;;;;-0.24;68.15;100537.69;1782868;79;21065;-55
2021/03/21 00:39:58;;;;;;;27.77;22.10;;;;;;;-0.28;68.16;100528.32;1783165;80;21057;-54
2021/03/21 00:42:29;;;;;;;22.15;17.80;;;;;;;-0.30;68.28;100522.27;1782916;80;20970;-54
2021/03/21 00:44:58;;;;;;;21.48;15.90;;;;;;;-0.32;68.31;100527.88;1783147;80;21343;-55
2021/03/21 00:47:34;;;;;;;23.92;15.72;;;;;;;-0.33;68.33;100534.30;1782957;80;21065;-54
2021/03/21 00:50:08;;;;;;;17.17;12.93;;;;;;;-0.37;68.31;100527.66;1782835;80;20998;-54
2021/03/21 00:52:38;;;;;;;20.00;14.10;;;;;;;-0.35;68.38;100529.63;1783023;80;21053;-55
2021/03/21 00:55:12;;;;;;;18.23;13.32;;;;;;;-0.32;68.35;100534.62;1783148;80;21053;-54
2021/03/21 00:57:46;;;;;;;21.37;14.60;;;;;;;-0.32;68.31;100535.15;1783065;80;21193;-54
2021/03/21 01:03:24;;;;;;;24.12;20.57;;;;;;;-0.28;68.40;100528.32;1840864;77;28509;-54
2021/03/21 01:06:01;;;;;;;24.67;16.85;;;;;;;-0.39;68.56;100533.22;1810374;79;20965;-54
2021/03/21 01:08:37;;;;;;;26.02;14.78;;;;;;;-0.39;68.65;100540.49;1808344;79;22085;-54
2021/03/21 01:11:15;;;;;;;20.02;13.80;;;;;;;-0.45;68.77;100529.16;1808073;79;21001;-54
2021/03/21 01:13:44;;;;;;;;;;;;;;;-0.51;69.04;100522.69;1810705;79;21009;-55
2021/03/21 01:16:24;;;;;;;18.17;12.28;;;;;;;-0.52;69.14;100527.75;1807757;79;20153;-54
2021/03/21 01:18:53;;;;;;;17.35;13.28;;;;;;;-0.55;69.26;100526.27;1808294;79;20958;-54
2021/03/21 01:21:29;;;;;;;23.67;13.50;;;;;;;-0.58;69.37;100521.81;1808134;79;21383;-54
2021/03/21 01:23:56;;;;;;;18.32;13.20;;;;;;;-0.58;69.41;100520.45;1807212;79;21032;-54
2021/03/21 01:26:29;;;;;;;17.35;13.38;;;;;;;-0.59;69.39;100510.69;1807895;79;21036;-54
2021/03/21 01:28:58;;;;;;;15.80;12.07;;;;;;;-0.56;69.46;100517.03;1808041;79;21575;-56
2021/03/21 01:31:34;;;;;;;21.77;14.50;;;;;;;-0.61;69.47;100514.11;1808376;79;21472;-54
2021/03/21 01:34:08;;;;;;;17.02;12.47;;;;;;;-0.67;69.68;100521.63;1808386;79;22033;-54
2021/03/21 01:36:45;;;;;;;18.40;12.98;;;;;;;-0.72;69.72;100516.30;1792973;79;21040;-54
2021/03/21 01:39:20;;;;;;;21.75;14.00;;;;;;;-0.73;69.87;100520.05;1775881;80;21102;-54
2021/03/21 01:42:14;;;;;;;17.92;13.28;;;;;;;-0.70;69.90;100514.26;1850950;77;28215;-54
2021/03/21 01:44:44;;;;;;;20.48;14.25;;;;;;;-0.76;69.93;100516.90;1755711;81;21070;-54
2021/03/21 01:47:36;;;;;;;24.30;17.75;;;;;;;-0.81;70.04;100506.70;1786753;80;21250;-54
2021/03/21 01:50:11;;;;;;;19.27;14.65;;;;;;;-0.83;70.23;100508.75;1787142;80;21600;-55
2021/03/21 01:52:41;;;;;;;19.40;13.75;;;;;;;-0.84;70.26;100512.50;1784664;80;21041;-54
2021/03/21 01:55:12;;;;;;;17.50;13.13;;;;;;;-0.82;70.29;100503.69;1786916;80;20955;-54
2021/03/21 01:57:42;;;;;;;20.68;12.45;;;;;;;-0.81;70.21;100495.09;1786964;80;21010;-54
2021/03/21 02:00:15;;;;;;;21.48;14.90;;;;;;;-0.84;70.25;100496.31;1787067;80;21210;-54
2021/03/21 02:02:51;;;;;;;17.60;11.80;;;;;;;-0.87;70.27;100496.19;1787253;80;21052;-55
2021/03/21 02:05:19;;;;;;;19.92;12.55;;;;;;;-0.85;70.26;100497.86;1787210;80;21588;-54
2021/03/21 02:08:38;;;;;;;18.92;12.70;;;;;;;-0.85;70.20;100489.77;1786921;80;21029;-54
2021/03/21 02:11:24;;;;;;;14.60;11.15;;;;;;;-0.89;70.18;100494.22;1787002;80;21599;-54
2021/03/21 02:14:34;;;;;;;16.85;12.40;;;;;;;-0.92;70.30;100483.80;1786964;80;21261;-54
2021/03/21 02:17:27;;;;;;;16.10;11.88;;;;;;;-0.95;70.25;100485.54;1787205;80;28366;-54
2021/03/21 02:20:21;;;;;;;21.00;13.22;;;;;;;-1.00;70.31;100489.36;1786872;80;21192;-54
2021/03/21 02:23:13;;;;;;;18.20;12.13;;;;;;;-1.04;70.44;100489.42;1772207;80;20978;-54
2021/03/21 02:25:55;;;;;;;19.82;15.63;;;;;;;-1.06;70.51;100486.92;1762778;80;21021;-54
2021/03/21 02:29:22;;;;;;;18.23;13.50;;;;;;;-1.05;70.59;100487.75;1735076;80;22797;-54
2021/03/21 02:32:00;;;;;;;21.17;12.78;;;;;;;-1.07;70.62;100483.08;1786877;80;21065;-54
2021/03/21 02:35:19;;;;;;;16.95;12.65;;;;;;;-1.06;70.68;100487.42;1782191;80;21005;-54
2021/03/21 02:38:09;;;;;;;18.17;13.90;;;;;;;-1.01;70.70;100476.90;1762195;78;27973;-54
2021/03/21 02:41:04;;;;;;;18.35;12.23;;;;;;;-1.02;70.50;100480.61;1780315;80;20984;-54
2021/03/21 02:43:41;;;;;;;20.37;15.50;;;;;;;-1.02;70.57;100474.40;1776986;80;26365;-55
2021/03/21 02:46:27;;;;;;;19.25;15.13;;;;;;;-1.03;70.53;100468.16;1780055;80;21056;-54
2021/03/21 02:49:06;;;;;;;20.03;15.80;;;;;;;-1.02;70.45;100467.66;1780122;80;21309;-54
2021/03/21 02:51:41;;;;;;;19.67;15.48;;;;;;;-1.01;70.40;100470.16;1780045;80;21261;-54
2021/03/21 02:54:26;;;;;;;17.98;12.85;;;;;;;-1.03;70.37;100467.33;1778042;80;21055;-54
2021/03/21 02:57:06;;;;;;;16.00;11.70;;;;;;;-1.10;70.48;100466.78;1780136;80;21197;-54
2021/03/21 02:59:40;;;;;;;18.20;11.78;;;;;;;-1.13;70.55;100471.22;1778890;80;21332;-54
2021/03/21 03:02:30;;;;;;;15.30;12.60;;;;;;;-1.12;70.59;100463.95;1780258;80;21011;-54
2021/03/21 03:05:18;;;;;;;13.78;11.08;;;;;;;-1.14;70.62;100460.11;1774196;80;21027;-54
2021/03/21 03:07:54;;;;;;;16.80;11.68;;;;;;;-1.16;70.64;100447.31;1780124;80;20992;-54
2021/03/21 03:10:37;;;;;;;21.12;13.65;;;;;;;-1.16;70.73;100451.89;1780095;80;21539;-53
2021/03/21 03:13:31;;;;;;;19.57;13.95;;;;;;;-1.16;70.68;100437.88;1779384;80;21339;-54
2021/03/21 03:16:23;;;;;;;19.45;14.05;;;;;;;-1.18;70.73;100445.34;1780105;80;21047;-54
2021/03/21 03:19:13;;;;;;;14.15;12.35;;;;;;;-1.22;70.83;100456.20;1780239;80;21720;-54
2021/03/21 03:22:23;;;;;;;15.08;11.70;;;;;;;-1.23;70.82;100460.77;1779941;80;21028;-54
2021/03/21 03:25:25;;;;;;;17.00;11.97;;;;;;;-1.22;70.74;100469.15;1778022;80;21661;-54
2021/03/21 03:28:30;;;;;;;16.67;12.35;;;;;;;-1.22;70.70;100462.41;1780294;80;21618;-54
2021/03/21 03:31:08;;;;;;;15.98;11.65;;;;;;;-1.21;70.73;100461.92;1780295;80;21000;-54
2021/03/21 03:33:38;;;;;;;23.65;18.30;;;;;;;-1.20;70.52;100450.61;1780143;80;21605;-54
2021/03/21 03:36:08;;;;;;;17.05;15.10;;;;;;;-1.17;70.25;100444.33;1770172;80;21063;-53
2021/03/21 03:38:41;;;;;;;17.02;12.25;;;;;;;-1.17;70.21;100447.52;1749082;82;22537;-54
2021/03/21 03:41:41;;;;;;;17.52;12.55;;;;;;;-1.20;70.16;100442.03;1746747;82;21016;-53
2021/03/21 03:44:38;;;;;;;15.85;10.70;;;;;;;-1.22;70.00;100440.03;1738833;82;21061;-54
2021/03/21 03:50:36;;;;;;;16.85;11.48;;;;;;;-1.24;70.21;100438.05;1840187;77;28254;-55
2021/03/21 03:53:50;;;;;;;18.95;11.08;;;;;;;-1.31;70.24;100444.73;1759727;79;21009;-54
2021/03/21 03:56:22;;;;;;;16.40;11.43;;;;;;;-1.34;70.18;100446.47;1815060;79;21213;-54
2021/03/21 03:59:40;;;;;;;16.80;10.78;;;;;;;-1.34;70.21;100437.53;1748235;81;21043;-54
2021/03/21 04:02:13;;;;;;;15.60;12.55;;;;;;;-1.34;70.15;100435.69;1779287;80;21085;-54
2021/03/21 04:04:56;;;;;;;17.48;12.15;;;;;;;-1.33;70.17;100431.13;1748510;82;21600;-54
2021/03/21 04:07:52;;;;;;;15.63;10.68;;;;;;;-1.33;70.15;100434.67;1746003;82;21081;-54
2021/03/21 04:10:40;;;;;;;15.40;12.47;;;;;;;-1.32;70.08;100426.06;1748418;82;21287;-54
2021/03/21 04:13:20;;;;;;;15.75;12.05;;;;;;;-1.32;70.08;100430.11;1779092;80;21057;-54
2021/03/21 04:15:51;;;;;;;17.90;13.03;;;;;;;-1.32;69.96;100434.97;1748183;82;21057;-54
2021/03/21 04:18:44;;;;;;;16.75;13.68;;;;;;;-1.32;70.01;100435.49;1784704;80;21196;-54
2021/03/21 04:21:35;;;;;;;20.62;13.10;;;;;;;-1.33;70.00;100431.13;1784821;80;21030;-53
2021/03/21 04:24:19;;;;;;;18.60;13.78;;;;;;;-1.30;69.98;100428.89;1785156;80;22373;-54
2021/03/21 04:27:12;;;;;;;23.00;13.58;;;;;;;-1.29;69.83;100430.53;1780876;80;21002;-54
2021/03/21 04:30:09;;;;;;;16.97;12.90;;;;;;;-1.19;69.60;100422.11;1846213;76;28265;-54
2021/03/21 04:32:50;;;;;;;15.45;11.12;;;;;;;-1.24;69.41;100419.19;1816327;78;21052;-54
2021/03/21 04:35:48;;;;;;;17.40;12.30;;;;;;;-1.23;69.43;100419.48;1815155;78;22099;-54
2021/03/21 04:38:23;;;;;;;14.75;11.93;;;;;;;-1.20;69.28;100416.42;1784035;80;20981;-54
2021/03/21 04:40:52;;;;;;;18.57;15.65;;;;;;;-1.20;69.08;100412.88;1783721;80;20946;-54
2021/03/21 04:43:33;;;;;;;19.37;14.58;;;;;;;-1.18;69.13;100413.00;1783714;80;21138;-54
2021/03/21 04:46:10;;;;;;;17.45;12.40;;;;;;;-1.13;68.95;100420.00;1783897;80;20989;-54
2021/03/21 04:48:39;;;;;;;18.05;12.70;;;;;;;-1.14;68.86;100421.02;1784042;80;22307;-54
2021/03/21 04:51:20;;;;;;;25.08;16.77;;;;;;;-1.14;68.69;100408.89;1783142;80;20998;-54
2021/03/21 04:53:58;;;;;;;27.17;18.82;;;;;;;-1.06;68.46;100413.28;1783919;79;21022;-54
2021/03/21 04:56:33;;;;;;;19.92;15.78;;;;;;;-1.00;68.23;100409.81;1783261;80;21047;-54
2021/03/21 04:59:15;;;;;;;21.50;16.10;;;;;;;-0.92;67.79;100404.77;1783785;80;20998;-54
2021/03/21 05:01:51;;;;;;;22.17;17.65;;;;;;;-0.88;67.38;100412.79;1782364;80;21284;-54
2021/03/21 05:04:30;;;;;;;21.02;15.63;;;;;;;-0.87;67.42;100411.77;1764710;80;21055;-54
2021/03/21 05:07:21;;;;;;;17.07;13.88;;;;;;;-0.83;67.15;100401.39;1783586;80;21034;-55
2021/03/21 05:09:49;;;;;;;21.73;14.33;;;;;;;-0.76;66.67;100405.81;1783749;80;21049;-54
2021/03/21 05:12:21;;;;;;;17.32;12.33;;;;;;;-0.72;66.51;100409.75;1783854;80;21025;-54
2021/03/21 05:14:55;;;;;;;19.48;13.25;;;;;;;-0.65;66.13;100415.19;1783848;79;21049;-54
2021/03/21 05:17:40;;;;;;;21.02;12.68;;;;;;;-0.66;66.00;100416.73;1783904;80;21029;-54
2021/03/21 05:20:25;;;;;;;20.75;11.68;;;;;;;-0.62;65.67;100418.02;1783650;79;21041;-53
2021/03/21 05:23:12;;;;;;;18.77;12.45;;;;;;;-0.60;65.63;100416.78;1783673;80;20986;-53
2021/03/21 05:25:47;;;;;;;15.63;11.45;;;;;;;-0.51;65.49;100428.23;1783550;80;20966;-53
2021/03/21 05:28:50;;;;;;;18.55;12.15;;;;;;;-0.53;65.14;100417.65;1786463;78;21961;-54
2021/03/21 05:31:19;;;;;;;25.85;14.07;;;;;;;-0.54;65.24;100418.67;1795597;79;21005;-53
2021/03/21 05:33:48;;;;;;;25.25;12.95;;;;;;;-0.50;65.23;100420.97;1795583;79;21032;-54
2021/03/21 05:36:44;;;;;;;18.52;12.55;;;;;;;-0.49;65.21;100409.97;1795538;78;21414;-53
2021/03/21 05:39:50;;;;;;;18.40;13.40;;;;;;;-0.43;65.14;100417.78;1794895;79;21017;-54
2021/03/21 05:42:30;;;;;;;21.00;13.40;;;;;;;-0.36;65.18;100407.84;1795314;79;21195;-54
2021/03/21 05:45:25;;;;;;;22.17;13.00;;;;;;;-0.25;65.11;100409.14;1795094;79;21020;-54
2021/03/21 05:48:26;;;;;;;19.98;13.03;;;;;;;-0.19;64.65;100409.67;1795166;79;20981;-54
2021/03/21 05:51:15;;;;;;;20.62;13.70;;;;;;;-0.21;64.45;100417.97;1795074;79;21037;-55
2021/03/21 05:54:42;;;;;;;19.67;14.13;;;;;;;-0.17;64.33;100415.72;1795247;79;21011;-55
2021/03/21 05:57:39;;;;;;;23.27;16.42;;;;;;;-0.12;64.58;100418.62;1794463;79;21367;-55
2021/03/21 06:03:52;;;;;;;24.92;17.98;;;;;;;-0.01;65.40;100415.33;1796533;78;23501;-55
2021/03/21 06:06:58;;;;;;;27.67;17.60;;;;;;;-0.01;65.51;100415.86;1789268;80;21133;-55
2021/03/21 06:10:10;;;;;;;;;;;;;;;0.05;65.27;100409.63;1730377;82;21220;-54
2021/03/21 06:13:02;;;;;;;28.38;18.12;;;;;;;0.12;64.93;100412.36;1723267;83;20191;-55
2021/03/21 06:16:11;;;;;;;25.90;18.70;;;;;;;0.16;64.39;100402.81;1845813;76;23279;-54
2021/03/21 06:19:07;;;;;;;28.12;18.70;;;;;;;0.12;64.50;100407.77;1815841;78;20935;-54
2021/03/21 06:22:02;;;;;;;24.98;17.90;;;;;;;0.18;64.28;100393.97;1746934;79;22224;-53
2021/03/21 06:25:19;;;;;;;25.52;18.67;;;;;;;0.31;63.96;100391.27;1816032;79;21033;-54
2021/03/21 06:28:16;;;;;;;28.12;19.87;;;;;;;0.45;63.32;100407.52;1816029;78;21606;-54
2021/03/21 06:31:06;;;;;;;27.48;20.23;;;;;;;0.49;63.32;100402.83;1816118;79;21021;-54
2021/03/21 06:34:07;;;;;;;27.20;19.25;;;;;;;0.57;63.12;100399.61;1815901;79;21041;-54
2021/03/21 06:36:43;;;;;;;30.25;19.50;;;;;;;0.62;62.69;100388.48;1796860;79;21368;-54
2021/03/21 06:39:21;;;;;;;24.35;18.00;;;;;;;0.78;62.19;100386.40;1783612;79;21061;-54
2021/03/21 06:42:44;;;;;;;26.70;18.15;;;;;;;0.88;61.93;100376.52;1888132;76;23707;-54
2021/03/21 06:45:49;;;;;;;27.40;19.77;;;;;;;0.83;61.41;100369.03;1832839;77;20957;-54
2021/03/21 06:48:52;;;;;;;25.00;18.77;;;;;;;0.73;60.91;100367.26;1858856;77;21180;-54
2021/03/21 06:51:56;;;;;;;28.47;19.02;;;;;;;0.68;61.26;100363.84;1859030;77;20995;-54
2021/03/21 06:54:51;;;;;;;30.40;19.23;;;;;;;0.72;61.24;100362.38;1859204;77;21639;-55
2021/03/21 06:57:46;;;;;;;25.08;18.70;;;;;;;0.67;61.04;100345.95;1858837;77;21009;-55
2021/03/21 07:00:57;;;;;;;26.62;18.37;;;;;;;0.64;61.34;100355.33;1858713;77;21025;-54
2021/03/21 07:04:02;;;;;;;29.42;20.57;;;;;;;0.69;61.71;100351.46;1858928;77;21194;-54
2021/03/21 07:07:16;;;;;;;31.60;22.13;;;;;;;0.82;60.65;100352.50;1833849;77;21056;-59
2021/03/21 07:10:11;;;;;;;34.55;24.70;;;;;;;0.90;60.64;100350.92;1858546;77;20990;-54
2021/03/21 07:13:16;;;;;;;40.95;29.57;;;;;;;1.00;59.81;100344.55;1826068;77;20978;-54
2021/03/21 07:16:14;;;;;;;38.67;25.60;;;;;;;1.05;60.15;100339.84;1858529;77;21037;-56
2021/03/21 07:19:08;;;;;;;36.28;22.95;;;;;;;1.08;60.51;100333.19;1858566;77;22054;-56
2021/03/21 07:22:34;;;;;;;32.42;21.70;;;;;;;1.19;60.16;100330.64;1858054;77;21017;-55
2021/03/21 07:25:24;;;;;;;30.52;20.95;;;;;;;1.25;59.69;100341.13;1858353;77;21032;-56
2021/03/21 07:28:17;;;;;;;;;;;;;;;1.24;58.26;100315.11;1861652;77;21013;-55
2021/03/21 07:31:18;;;;;;;36.35;23.12;;;;;;;1.24;58.48;100316.99;1858628;77;20182;-55
2021/03/21 07:34:11;;;;;;;36.38;23.40;;;;;;;1.24;58.60;100308.34;1859103;77;21377;-55
2021/03/21 07:36:46;;;;;;;31.65;20.17;;;;;;;1.34;58.50;100299.27;1836535;77;21635;-55
2021/03/21 07:39:47;;;;;;;28.42;19.62;;;;;;;1.46;58.58;100294.50;1825145;78;21044;-55
2021/03/21 07:42:48;;;;;;;40.03;25.50;;;;;;;1.58;57.42;100288.72;1825039;78;21088;-55
2021/03/21 07:45:40;;;;;;;37.35;25.05;;;;;;;1.59;57.10;100288.18;1824955;78;20986;-54
2021/03/21 07:48:26;;;;;;;35.58;22.85;;;;;;;1.59;57.42;100279.55;1825139;78;22176;-54
2021/03/21 07:51:16;;;;;;;30.00;19.73;;;;;;;1.64;57.84;100270.23;1824900;78;21044;-54
2021/03/21 07:54:29;;;;;;;32.08;22.37;;;;;;;1.87;57.59;100266.12;1820273;78;21029;-54
2021/03/21 07:57:43;;;;;;;32.70;20.88;;;;;;;2.05;55.39;100259.42;1824573;78;21651;-53
2021/03/21 08:00:12;;;;;;;28.70;20.52;;;;;;;2.15;54.71;100249.44;1824521;78;20985;-55
2021/03/21 08:02:46;;;;;;;28.40;19.00;;;;;;;2.33;53.69;100257.30;1824080;78;21197;-55
2021/03/21 08:05:20;;;;;;;24.52;17.90;;;;;;;2.53;52.67;100253.89;1824447;78;21005;-55
2021/03/21 08:07:54;;;;;;;26.97;19.98;;;;;;;2.57;51.10;100251.54;1824398;78;21009;-55
2021/03/21 08:10:29;;;;;;;28.02;20.17;;;;;;;2.43;52.07;100249.52;1824255;78;20994;-55
2021/03/21 08:13:25;;;;;;;31.00;21.17;;;;;;;2.35;52.55;100247.08;1824426;78;21662;-55
2021/03/21 08:16:00;;;;;;;30.65;21.30;;;;;;;2.29;52.67;100232.54;1824545;78;21555;-54
2021/03/21 08:18:36;;;;;;;29.77;20.10;;;;;;;2.35;52.77;100222.69;1824255;78;20945;-54
2021/03/21 08:21:15;;;;;;;27.60;19.00;;;;;;;2.53;51.62;100221.86;1824240;78;21352;-54
2021/03/21 08:23:48;;;;;;;26.57;19.70;;;;;;;2.65;51.73;100219.25;1824475;78;21059;-55
2021/03/21 08:26:27;;;;;;;25.50;18.90;;;;;;;2.73;51.03;100221.62;1824111;78;21077;-55
2021/03/21 08:29:10;;;;;;;30.65;20.77;;;;;;;2.68;51.25;100211.47;1824565;78;21789;-55
2021/03/21 08:31:48;;;;;;;29.15;21.97;;;;;;;2.84;51.14;100209.20;1824164;78;21021;-54
2021/03/21 08:34:39;;;;;;;30.68;21.37;;;;;;;3.16;50.70;100201.70;1821439;78;21056;-54
2021/03/21 08:37:31;;;;;;;26.02;18.80;;;;;;;3.48;49.64;100191.12;1824068;77;21056;-55
2021/03/21 08:40:16;;;;;;;25.50;19.45;;;;;;;3.66;48.15;100211.94;1824329;78;21014;-54
2021/03/21 08:42:51;;;;;;;28.77;21.30;;;;;;;3.40;47.72;100197.19;1824540;78;21357;-55
2021/03/21 08:45:41;;;;;;;25.62;20.40;;;;;;;3.49;48.12;100189.53;1824091;78;21036;-54
2021/03/21 08:48:21;;;;;;;25.57;18.15;;;;;;;3.56;47.36;100190.26;1824332;78;20958;-54
2021/03/21 08:50:55;;;;;;;24.57;18.05;;;;;;;3.55;46.91;100225.80;1823988;78;20973;-55
2021/03/21 08:53:44;;;;;;;24.50;17.85;;;;;;;3.53;46.14;100174.95;1824198;78;21025;-55
2021/03/21 08:56:39;;;;;;;30.80;19.82;;;;;;;3.50;46.05;100176.77;1824548;78;21192;-54
2021/03/21 08:59:29;;;;;;;27.20;19.52;;;;;;;3.62;46.30;100173.56;1824091;78;21060;-55
2021/03/21 09:02:19;;;;;;;27.42;19.75;;;;;;;3.73;46.38;100173.27;1824136;78;21631;-54
2021/03/21 09:07:51;;;;;;;24.60;18.52;;;;;;;3.93;45.42;100167.50;1811736;79;22074;-54
2021/03/21 09:10:40;;;;;;;32.23;18.52;;;;;;;3.88;45.06;100176.91;1780396;80;21045;-54
2021/03/21 09:13:17;;;;;;;24.45;17.40;;;;;;;3.83;45.25;100165.90;1781328;80;21542;-55
2021/03/21 09:15:54;;;;;;;27.75;17.37;;;;;;;3.90;45.14;100129.93;1782223;80;21122;-54
2021/03/21 09:18:32;;;;;;;27.80;17.73;;;;;;;4.15;44.97;100131.87;1780701;80;20954;-55
2021/03/21 09:21:26;;;;;;;23.80;16.95;;;;;;;4.44;45.11;100138.73;1782092;80;21056;-55
2021/03/21 09:24:09;;;;;;;23.98;15.85;;;;;;;4.74;43.36;100138.25;1754158;80;21013;-54
2021/03/21 09:26:42;;;;;;;26.55;15.70;;;;;;;4.79;42.89;100151.42;1781973;80;21264;-54
2021/03/21 09:29:24;;;;;;;20.65;16.42;;;;;;;4.81;42.39;100119.34;1781943;80;21065;-54
2021/03/21 09:32:06;;;;;;;23.27;15.93;;;;;;;5.01;43.52;100105.29;1782150;80;21021;-54
2021/03/21 09:37:38;;;;;;;19.62;14.78;;;;;;;5.72;40.74;100121.75;1822516;77;22447;-55
2021/03/21 09:40:34;;;;;;;23.40;14.78;;;;;;;5.56;39.74;100119.84;1796971;79;21020;-54
2021/03/21 09:43:03;;;;;;;22.20;14.98;;;;;;;5.47;39.83;100114.82;1796853;79;22163;-55
2021/03/21 09:45:34;;;;;;;20.65;15.05;;;;;;;5.62;40.38;100105.24;1796688;79;21630;-54
2021/03/21 09:48:05;;;;;;;21.07;14.87;;;;;;;5.83;39.67;100102.27;1796693;79;21008;-55
2021/03/21 09:50:55;;;;;;;20.65;15.58;;;;;;;6.11;39.17;100094.53;1796889;79;21047;-55
2021/03/21 09:53:57;;;;;;;21.93;15.25;;;;;;;6.46;39.14;100090.63;1797073;79;21017;-54
2021/03/21 09:56:42;;;;;;;21.52;15.13;;;;;;;6.69;37.89;100088.16;1796377;79;21190;-54
2021/03/21 09:59:45;;;;;;;21.07;13.75;;;;;;;6.85;35.96;100110.99;1796953;79;21495;-55
2021/03/21 10:02:53;;;;;;;22.62;14.47;;;;;;;6.44;36.00;100084.59;1796762;79;20989;-55
2021/03/21 10:06:02;;;;;;;20.02;13.15;;;;;;;6.18;36.77;100072.54;1796686;79;21008;-54
2021/03/21 10:09:11;;;;;;;17.65;13.35;;;;;;;6.17;36.58;100071.73;1797385;79;21609;-54
2021/03/21 10:11:43;;;;;;;28.77;18.12;;;;;;;6.16;37.26;100062.41;1797167;79;21359;-54
2021/03/21 10:14:30;;;;;;;19.30;13.50;;;;;;;6.40;37.11;100051.55;1796816;79;20960;-54
2021/03/21 10:17:19;;;;;;;22.77;14.43;;;;;;;6.59;35.95;100077.14;1796899;79;21048;-56
2021/03/21 10:20:01;;;;;;;20.30;13.00;;;;;;;6.49;35.71;100056.56;1786565;79;20976;-55
2021/03/21 10:22:35;;;;;;;21.95;15.05;;;;;;;6.51;35.51;100045.66;1797276;79;21410;-54
2021/03/21 10:25:16;;;;;;;18.90;12.07;;;;;;;6.52;35.51;100040.48;1796954;79;21322;-55
2021/03/21 10:27:56;;;;;;;16.60;12.25;;;;;;;6.64;35.59;100042.25;1796552;79;20972;-54
2021/03/21 10:30:33;;;;;;;21.07;12.43;;;;;;;6.80;34.65;100064.55;1765528;79;21617;-55
2021/03/21 10:33:20;;;;;;;22.70;12.30;;;;;;;6.85;35.81;100047.39;1796930;79;21051;-56
2021/03/21 10:35:53;;;;;;;17.20;12.85;;;;;;;7.09;34.58;100024.13;1786964;79;21139;-55
2021/03/21 10:38:50;;;;;;;23.55;12.82;;;;;;;7.48;34.43;100030.44;1851193;77;25293;-55
2021/03/21 10:41:59;;;;;;;17.02;12.18;;;;;;;7.60;33.79;100042.83;1823073;78;21291;-55
2021/03/21 10:44:39;;;;;;;21.50;11.83;;;;;;;7.60;33.69;100020.12;1823224;78;22252;-55
2021/03/21 10:47:25;;;;;;;18.62;12.75;;;;;;;7.40;33.84;100024.38;1823566;78;21042;-55
2021/03/21 10:50:10;;;;;;;17.00;12.18;;;;;;;7.28;34.95;100013.35;1796185;78;21009;-56
2021/03/21 10:52:44;;;;;;;19.57;12.40;;;;;;;7.69;33.84;100006.80;1781126;78;21025;-55
2021/03/21 10:55:20;;;;;;;19.62;12.30;;;;;;;8.14;34.11;100009.47;1823477;78;21512;-55
2021/03/21 10:57:59;;;;;;;15.40;11.35;;;;;;;8.31;33.41;99996.95;1823448;78;21290;-55
2021/03/21 11:00:38;;;;;;;14.73;11.35;;;;;;;8.29;33.06;99996.41;1845965;76;22722;-54
2021/03/21 11:03:16;;;;;;;15.40;11.63;;;;;;;8.10;33.12;99996.05;1815709;78;21319;-55
2021/03/21 11:05:47;;;;;;;15.55;11.63;;;;;;;7.76;33.86;99999.19;1813318;79;21432;-55
2021/03/21 11:08:33;;;;;;;18.20;11.75;;;;;;;7.77;34.00;99986.62;1816058;79;21549;-55
2021/03/21 11:11:24;;;;;;;21.95;12.70;;;;;;;7.76;33.91;99983.59;1816184;78;21041;-55
2021/03/21 11:13:55;;;;;;;16.27;10.95;;;;;;;7.47;34.03;99980.96;1811483;79;21021;-54
2021/03/21 11:16:27;;;;;;;16.37;12.53;;;;;;;7.33;34.55;99971.88;1816275;79;21045;-55
2021/03/21 11:19:04;;;;;;;16.95;11.10;;;;;;;7.51;34.59;99957.48;1816428;79;21397;-54
2021/03/21 11:21:37;;;;;;;17.57;11.28;;;;;;;7.81;34.67;99971.86;1812745;79;21547;-54
2021/03/21 11:24:35;;;;;;;17.12;11.55;;;;;;;8.07;34.06;99952.81;1816078;79;20989;-55
2021/03/21 11:27:12;;;;;;;17.07;11.73;;;;;;;8.09;34.57;99950.10;1815969;79;21005;-54
2021/03/21 11:29:44;;;;;;;16.42;11.85;;;;;;;8.64;34.23;99962.02;1816266;79;20994;-54
2021/03/21 11:32:18;;;;;;;21.50;11.90;;;;;;;8.63;33.40;99965.31;1784626;79;21253;-54
2021/03/21 11:35:05;;;;;;;18.65;12.03;;;;;;;8.48;34.00;99928.33;1815408;79;21010;-53
2021/03/21 11:37:44;;;;;;;18.87;12.70;;;;;;;8.53;33.85;99928.88;1783762;80;21002;-54
2021/03/21 11:40:30;;;;;;;15.38;11.48;;;;;;;8.64;33.35;99928.64;1783765;80;21021;-54
2021/03/21 11:43:22;;;;;;;17.30;12.43;;;;;;;8.51;33.65;99918.76;1784064;80;21001;-55
2021/03/21 11:45:55;;;;;;;16.62;12.28;;;;;;;8.38;34.01;99922.81;1784014;80;22108;-54
2021/03/21 11:48:34;;;;;;;16.82;11.35;;;;;;;8.21;33.83;99933.44;1753872;80;21001;-55
2021/03/21 11:51:05;;;;;;;18.07;12.00;;;;;;;7.93;33.68;99891.80;1783799;80;20954;-55
2021/03/21 11:53:39;;;;;;;21.97;12.33;;;;;;;7.88;33.95;99912.28;1783852;80;21002;-55
2021/03/21 11:56:20;;;;;;;21.42;13.55;;;;;;;7.88;34.14;99899.97;1783519;80;21056;-55
2021/03/21 11:59:00;;;;;;;22.67;10.95;;;;;;;7.91;35.04;99910.92;1783763;79;21254;-55
2021/03/21 12:01:48;;;;;;;19.17;12.07;;;;;;;8.31;34.57;99897.08;1783932;80;21055;-55
2021/03/21 12:04:35;;;;;;;13.95;11.28;;;;;;;8.33;34.27;99880.38;1784218;80;21039;-55
2021/03/21 12:07:10;;;;;;;18.12;11.38;;;;;;;8.69;33.62;99879.89;1783860;80;21041;-55
2021/03/21 12:09:49;;;;;;;16.40;13.00;;;;;;;9.07;32.83;99874.91;1783580;80;21018;-54
2021/03/21 12:12:38;;;;;;;20.12;12.18;;;;;;;9.04;33.13;99867.81;1783322;80;21178;-55
2021/03/21 12:15:28;;;;;;;19.73;12.15;;;;;;;9.14;32.59;99874.63;1782869;80;21073;-54
2021/03/21 12:18:17;;;;;;;14.78;10.85;;;;;;;9.03;32.10;99877.11;1783077;80;21061;-55
2021/03/21 12:21:14;;;;;;;18.12;12.20;;;;;;;8.86;32.24;99882.36;1756796;80;21078;-55
2021/03/21 12:24:00;;;;;;;18.60;13.18;;;;;;;8.88;32.71;99859.61;1783245;80;21025;-55
2021/03/21 12:26:45;;;;;;;18.07;12.95;;;;;;;8.68;32.78;99874.70;1783235;80;21080;-54
2021/03/21 12:29:41;;;;;;;20.23;12.70;;;;;;;8.07;34.16;99865.30;1783027;79;20950;-54
2021/03/21 12:32:34;;;;;;;23.55;14.43;;;;;;;8.03;34.25;99865.55;1782900;80;21005;-54
2021/03/21 12:35:13;;;;;;;14.50;11.40;;;;;;;8.14;34.08;99859.02;1783239;79;21033;-54
2021/03/21 12:37:59;;;;;;;20.95;14.15;;;;;;;8.31;34.40;99859.58;1769408;80;21600;-55
2021/03/21 12:40:42;;;;;;;;;;;;;;;8.74;33.36;99850.31;1785683;80;21476;-54
2021/03/21 12:43:31;;;;;;;16.42;12.60;;;;;;;8.84;32.82;99854.41;1783103;80;20432;-54
2021/03/21 12:46:08;;;;;;;16.12;11.35;;;;;;;8.95;32.51;99844.27;1782876;79;21080;-54
2021/03/21 12:49:03;;;;;;;22.17;11.97;;;;;;;8.68;32.78;99841.84;1783228;80;21363;-54
2021/03/21 12:54:11;;;;;;;17.55;10.95;;;;;;;9.05;32.27;99838.77;1887835;76;22703;-54
2021/03/21 12:56:42;;;;;;;17.77;11.08;;;;;;;8.90;31.53;99842.38;1858907;77;21610;-55